sensor_id;sensor_type;location;lat;lon;timestamp;pressure;altitude;pressure_sealevel;temperature;humidity
51287;BME280;37364;46.974;18.916;2023-03-23T00:02:28;152505.22;;;8.56;100.00
51287;BME280;37364;46.974;18.916;2023-03-23T00:05:06;152502.66;;;8.55;100.00
51287;BME280;37364;46.974;18.916;2023-03-23T00:07:36;152524.63;;;8.64;100.00
51287;BME280;37364;46.974;18.916;2023-03-23T00:10:13;152522.06;;;8.63;100.00
51287;BME280;37364;46.974;18.916;2023-03-23T00:12:44;152506.56;;;8.57;100.00
51287;BME280;37364;46.974;18.916;2023-03-23T00:15:17;152531.13;;;8.66;100.00
51287;BME280;37364;46.974;18.916;2023-03-23T00:17:55;152523.34;;;8.63;100.00
51287;BME280;37364;46.974;18.916;2023-03-23T00:20:30;152569.88;;;8.82;100.00
51287;BME280;37364;46.974;18.916;2023-03-23T00:23:10;152554.38;;;8.76;100.00
51287;BME280;37364;46.974;18.916;2023-03-23T00:25:47;152567.31;;;8.81;100.00
51287;BME280;37364;46.974;18.916;2023-03-23T00:28:20;152556.97;;;8.77;100.00
51287;BME280;37364;46.974;18.916;2023-03-23T00:30:58;152569.88;;;8.82;100.00
51287;BME280;37364;46.974;18.916;2023-03-23T00:33:33;152571.19;;;8.82;100.00
51287;BME280;37364;46.974;18.916;2023-03-23T00:36:06;152549.19;;;8.74;100.00
51287;BME280;37364;46.974;18.916;2023-03-23T00:38:39;152544.03;;;8.71;100.00
51287;BME280;37364;46.974;18.916;2023-03-23T00:41:12;152537.56;;;8.69;100.00
51287;BME280;37364;46.974;18.916;2023-03-23T00:43:43;152525.91;;;8.64;100.00
51287;BME280;37364;46.974;18.916;2023-03-23T00:46:16;152506.56;;;8.57;100.00
51287;BME280;37364;46.974;18.916;2023-03-23T00:48:50;152501.38;;;8.55;100.00
51287;BME280;37364;46.974;18.916;2023-03-23T00:51:21;152503.94;;;8.56;100.00
51287;BME280;37364;46.974;18.916;2023-03-23T00:53:52;152505.22;;;8.56;100.00
51287;BME280;37364;46.974;18.916;2023-03-23T00:56:23;152500.06;;;8.54;100.00
51287;BME280;37364;46.974;18.916;2023-03-23T00:58:54;152514.28;;;8.60;100.00
51287;BME280;37364;46.974;18.916;2023-03-23T01:01:25;152523.34;;;8.63;100.00
51287;BME280;37364;46.974;18.916;2023-03-23T01:04:01;152550.47;;;8.74;100.00
51287;BME280;37364;46.974;18.916;2023-03-23T01:06:33;152562.16;;;8.79;100.00
51287;BME280;37364;46.974;18.916;2023-03-23T01:09:08;152537.56;;;8.69;100.00
51287;BME280;37364;46.974;18.916;2023-03-23T01:11:42;152527.25;;;8.65;100.00
51287;BME280;37364;46.974;18.916;2023-03-23T01:14:13;152519.47;;;8.62;100.00
51287;BME280;37364;46.974;18.916;2023-03-23T01:16:45;152527.25;;;8.65;100.00
51287;BME280;37364;46.974;18.916;2023-03-23T01:19:19;152510.41;;;8.58;100.00
51287;BME280;37364;46.974;18.916;2023-03-23T01:21:50;152493.63;;;8.51;100.00
51287;BME280;37364;46.974;18.916;2023-03-23T01:24:21;152494.91;;;8.52;100.00
51287;BME280;37364;46.974;18.916;2023-03-23T01:26:51;152498.78;;;8.54;100.00
51287;BME280;37364;46.974;18.916;2023-03-23T01:29:22;152516.91;;;8.61;100.00
51287;BME280;37364;46.974;18.916;2023-03-23T01:31:53;152531.13;;;8.66;100.00
51287;BME280;37364;46.974;18.916;2023-03-23T01:34:27;152493.63;;;8.51;100.00
51287;BME280;37364;46.974;18.916;2023-03-23T01:36:57;152475.50;;;8.44;100.00
51287;BME280;37364;46.974;18.916;2023-03-23T01:39:28;152500.06;;;8.54;100.00
51287;BME280;37364;46.974;18.916;2023-03-23T01:41:59;152509.13;;;8.58;100.00
51287;BME280;37364;46.974;18.916;2023-03-23T01:47:36;152458.66;;;8.38;100.00
51287;BME280;37364;46.974;18.916;2023-03-23T01:50:13;152436.66;;;8.29;100.00
51287;BME280;37364;46.974;18.916;2023-03-23T01:52:45;152425.03;;;8.24;100.00
51287;BME280;37364;46.974;18.916;2023-03-23T01:55:16;152443.16;;;8.31;100.00
51287;BME280;37364;46.974;18.916;2023-03-23T01:57:49;152390.16;;;8.10;100.00
51287;BME280;37364;46.974;18.916;2023-03-23T02:00:20;152386.25;;;8.09;100.00
51287;BME280;37364;46.974;18.916;2023-03-23T02:02:54;152368.22;;;8.02;100.00
51287;BME280;37364;46.974;18.916;2023-03-23T02:05:31;152364.31;;;8.00;100.00
51287;BME280;37364;46.974;18.916;2023-03-23T02:08:10;152360.44;;;7.99;100.00
51287;BME280;37364;46.974;18.916;2023-03-23T02:10:44;152347.50;;;7.93;100.00
51287;BME280;37364;46.974;18.916;2023-03-23T02:13:18;152368.22;;;8.02;100.00
51287;BME280;37364;46.974;18.916;2023-03-23T02:16:01;152335.88;;;7.89;100.00
51287;BME280;37364;46.974;18.916;2023-03-23T02:18:44;152306.16;;;7.77;100.00
51287;BME280;37364;46.974;18.916;2023-03-23T02:21:58;152303.56;;;7.76;100.00
51287;BME280;37364;46.974;18.916;2023-03-23T02:24:55;152290.66;;;7.71;100.00
51287;BME280;37364;46.974;18.916;2023-03-23T02:27:53;152251.88;;;7.56;100.00
51287;BME280;37364;46.974;18.916;2023-03-23T02:30:53;152259.66;;;7.59;100.00
51287;BME280;37364;46.974;18.916;2023-03-23T02:33:36;152233.78;;;7.48;100.00
51287;BME280;37364;46.974;18.916;2023-03-23T02:36:15;152222.19;;;7.44;100.00
51287;BME280;37364;46.974;18.916;2023-03-23T02:38:53;152231.22;;;7.47;100.00
51287;BME280;37364;46.974;18.916;2023-03-23T02:41:30;152201.53;;;7.36;100.00
51287;BME280;37364;46.974;18.916;2023-03-23T02:44:03;152193.75;;;7.32;100.00
51287;BME280;37364;46.974;18.916;2023-03-23T02:46:36;152166.66;;;7.22;100.00
51287;BME280;37364;46.974;18.916;2023-03-23T02:49:13;152158.88;;;7.19;100.00
51287;BME280;37364;46.974;18.916;2023-03-23T02:51:46;152148.56;;;7.15;100.00
51287;BME280;37364;46.974;18.916;2023-03-23T02:54:19;152183.41;;;7.28;100.00
51287;BME280;37364;46.974;18.916;2023-03-23T02:56:54;152184.69;;;7.29;100.00
51287;BME280;37364;46.974;18.916;2023-03-23T02:59:29;152153.72;;;7.17;100.00
51287;BME280;37364;46.974;18.916;2023-03-23T03:02:05;152160.16;;;7.19;100.00
51287;BME280;37364;46.974;18.916;2023-03-23T03:04:42;152126.63;;;7.06;100.00
51287;BME280;37364;46.974;18.916;2023-03-23T03:07:36;152099.47;;;6.95;100.00
51287;BME280;37364;46.974;18.916;2023-03-23T03:10:21;152094.31;;;6.93;100.00
51287;BME280;37364;46.974;18.916;2023-03-23T03:12:58;152091.75;;;6.92;100.00
51287;BME280;37364;46.974;18.916;2023-03-23T03:15:36;152162.75;;;7.20;100.00
51287;BME280;37364;46.974;18.916;2023-03-23T03:18:11;152197.63;;;7.34;100.00
51287;BME280;37364;46.974;18.916;2023-03-23T03:20:52;152157.59;;;7.18;100.00
51287;BME280;37364;46.974;18.916;2023-03-23T03:23:27;152171.81;;;7.24;100.00
51287;BME280;37364;46.974;18.916;2023-03-23T03:26:03;152169.22;;;7.23;100.00
51287;BME280;37364;46.974;18.916;2023-03-23T03:28:45;152156.31;;;7.18;100.00
51287;BME280;37364;46.974;18.916;2023-03-23T03:31:22;152152.44;;;7.16;100.00
51287;BME280;37364;46.974;18.916;2023-03-23T03:33:55;152139.50;;;7.11;100.00
51287;BME280;37364;46.974;18.916;2023-03-23T03:36:34;152162.75;;;7.20;100.00
51287;BME280;37364;46.974;18.916;2023-03-23T03:39:09;152166.66;;;7.22;100.00
51287;BME280;37364;46.974;18.916;2023-03-23T03:41:40;152148.56;;;7.15;100.00
51287;BME280;37364;46.974;18.916;2023-03-23T03:44:10;152152.44;;;7.16;100.00
51287;BME280;37364;46.974;18.916;2023-03-23T03:46:42;152134.34;;;7.09;100.00
51287;BME280;37364;46.974;18.916;2023-03-23T03:49:12;152152.44;;;7.16;100.00
51287;BME280;37364;46.974;18.916;2023-03-23T03:51:46;152111.09;;;7.00;100.00
51287;BME280;37364;46.974;18.916;2023-03-23T03:54:22;152080.09;;;6.87;100.00
51287;BME280;37364;46.974;18.916;2023-03-23T03:56:52;152064.63;;;6.81;100.00
51287;BME280;37364;46.974;18.916;2023-03-23T03:59:48;152040.09;;;6.71;100.00
51287;BME280;37364;46.974;18.916;2023-03-23T04:02:19;152047.84;;;6.75;100.00
51287;BME280;37364;46.974;18.916;2023-03-23T04:04:51;152019.44;;;6.63;100.00
51287;BME280;37364;46.974;18.916;2023-03-23T04:07:25;152010.41;;;6.60;100.00
51287;BME280;37364;46.974;18.916;2023-03-23T04:09:57;152011.66;;;6.60;100.00
51287;BME280;37364;46.974;18.916;2023-03-23T04:12:28;152005.22;;;6.58;100.00
51287;BME280;37364;46.974;18.916;2023-03-23T04:15:19;152005.22;;;6.58;100.00
51287;BME280;37364;46.974;18.916;2023-03-23T04:17:54;152014.28;;;6.61;100.00
51287;BME280;37364;46.974;18.916;2023-03-23T04:20:27;152068.50;;;6.83;100.00
51287;BME280;37364;46.974;18.916;2023-03-23T04:23:02;152067.22;;;6.82;100.00
51287;BME280;37364;46.974;18.916;2023-03-23T04:25:34;152051.69;;;6.76;100.00
51287;BME280;37364;46.974;18.916;2023-03-23T04:28:05;152060.72;;;6.80;100.00
51287;BME280;37364;46.974;18.916;2023-03-23T04:30:47;152046.53;;;6.74;100.00
51287;BME280;37364;46.974;18.916;2023-03-23T04:33:21;152037.53;;;6.70;100.00
51287;BME280;37364;46.974;18.916;2023-03-23T04:36:14;152013.00;;;6.61;100.00
51287;BME280;37364;46.974;18.916;2023-03-23T04:38:59;152028.47;;;6.67;100.00
51287;BME280;37364;46.974;18.916;2023-03-23T04:41:30;152027.16;;;6.66;100.00
51287;BME280;37364;46.974;18.916;2023-03-23T04:44:12;152049.13;;;6.75;100.00
51287;BME280;37364;46.974;18.916;2023-03-23T04:46:49;152036.19;;;6.70;100.00
51287;BME280;37364;46.974;18.916;2023-03-23T04:49:22;152025.88;;;6.66;100.00
51287;BME280;37364;46.974;18.916;2023-03-23T04:52:04;152056.84;;;6.78;100.00
51287;BME280;37364;46.974;18.916;2023-03-23T04:54:58;152074.94;;;6.85;100.00
51287;BME280;37364;46.974;18.916;2023-03-23T04:57:29;152046.53;;;6.74;100.00
51287;BME280;37364;46.974;18.916;2023-03-23T05:00:24;152080.09;;;6.87;100.00
51287;BME280;37364;46.974;18.916;2023-03-23T05:02:58;152078.81;;;6.87;100.00
51287;BME280;37364;46.974;18.916;2023-03-23T05:05:33;152144.66;;;7.13;100.00
51287;BME280;37364;46.974;18.916;2023-03-23T05:08:07;152129.19;;;7.07;100.00
51287;BME280;37364;46.974;18.916;2023-03-23T05:10:50;152153.72;;;7.17;100.00
51287;BME280;37364;46.974;18.916;2023-03-23T05:13:24;152165.31;;;7.21;100.00
51287;BME280;37364;46.974;18.916;2023-03-23T05:15:58;152187.31;;;7.30;100.00
51287;BME280;37364;46.974;18.916;2023-03-23T05:18:34;152213.13;;;7.40;100.00
51287;BME280;37364;46.974;18.916;2023-03-23T05:21:09;152219.56;;;7.43;100.00
51287;BME280;37364;46.974;18.916;2023-03-23T05:23:45;152286.78;;;7.69;100.00
51287;BME280;37364;46.974;18.916;2023-03-23T05:26:26;152257.06;;;7.58;100.00
51287;BME280;37364;46.974;18.916;2023-03-23T05:29:06;152249.28;;;7.55;100.00
51287;BME280;37364;46.974;18.916;2023-03-23T05:31:51;152264.84;;;7.61;100.00
51287;BME280;37364;46.974;18.916;2023-03-23T05:34:26;152286.78;;;7.69;100.00
51287;BME280;37364;46.974;18.916;2023-03-23T05:37:04;152313.94;;;7.80;100.00
51287;BME280;37364;46.974;18.916;2023-03-23T05:39:49;152347.50;;;7.93;100.00
51287;BME280;37364;46.974;18.916;2023-03-23T05:42:48;152344.94;;;7.92;100.00
51287;BME280;37364;46.974;18.916;2023-03-23T05:45:26;152368.22;;;8.02;100.00
51287;BME280;37364;46.974;18.916;2023-03-23T05:47:59;152384.97;;;8.08;100.00
51287;BME280;37364;46.974;18.916;2023-03-23T05:50:30;152412.09;;;8.19;100.00
51287;BME280;37364;46.974;18.916;2023-03-23T05:53:02;152406.94;;;8.17;100.00
51287;BME280;37364;46.974;18.916;2023-03-23T05:55:37;152405.66;;;8.17;100.00
51287;BME280;37364;46.974;18.916;2023-03-23T05:58:28;152427.66;;;8.25;100.00
51287;BME280;37364;46.974;18.916;2023-03-23T06:01:00;152454.78;;;8.36;100.00
51287;BME280;37364;46.974;18.916;2023-03-23T06:03:31;152497.50;;;8.53;100.00
51287;BME280;37364;46.974;18.916;2023-03-23T06:06:09;152533.69;;;8.67;100.00
51287;BME280;37364;46.974;18.916;2023-03-23T06:09:03;152611.28;;;8.98;100.00
51287;BME280;37364;46.974;18.916;2023-03-23T06:11:45;152673.34;;;9.23;100.00
51287;BME280;37364;46.974;18.916;2023-03-23T06:14:45;152750.97;;;9.54;100.00
51287;BME280;37364;46.974;18.916;2023-03-23T06:17:22;152806.59;;;9.76;100.00
51287;BME280;37364;46.974;18.916;2023-03-23T06:19:56;152837.69;;;9.88;100.00
51287;BME280;37364;46.974;18.916;2023-03-23T06:22:30;152828.63;;;9.84;100.00
51287;BME280;37364;46.974;18.916;2023-03-23T06:25:10;152908.84;;;10.16;100.00
51287;BME280;37364;46.974;18.916;2023-03-23T06:27:44;152921.81;;;10.21;100.00
51287;BME280;37364;46.974;18.916;2023-03-23T06:30:17;152978.78;;;10.44;100.00
51287;BME280;37364;46.974;18.916;2023-03-23T06:32:48;152994.31;;;10.50;100.00
51287;BME280;37364;46.974;18.916;2023-03-23T06:35:35;153026.72;;;10.63;100.00
51287;BME280;37364;46.974;18.916;2023-03-23T06:38:13;153073.31;;;10.81;100.00
51287;BME280;37364;46.974;18.916;2023-03-23T06:40:51;153123.81;;;11.01;100.00
51287;BME280;37364;46.974;18.916;2023-03-23T06:43:25;153148.41;;;11.11;100.00
51287;BME280;37364;46.974;18.916;2023-03-23T06:46:13;153224.88;;;11.41;100.00
51287;BME280;37364;46.974;18.916;2023-03-23T06:48:53;153289.63;;;11.67;100.00
51287;BME280;37364;46.974;18.916;2023-03-23T06:51:34;153312.97;;;11.76;100.00
51287;BME280;37364;46.974;18.916;2023-03-23T06:54:05;153348.00;;;11.90;100.00
51287;BME280;37364;46.974;18.916;2023-03-23T06:56:39;153411.53;;;12.15;100.00
51287;BME280;37364;46.974;18.916;2023-03-23T06:59:10;153393.38;;;12.08;100.00
51287;BME280;37364;46.974;18.916;2023-03-23T07:01:44;153421.88;;;12.19;100.00
51287;BME280;37364;46.974;18.916;2023-03-23T07:04:16;153464.63;;;12.36;99.10
51287;BME280;37364;46.974;18.916;2023-03-23T07:06:59;153493.16;;;12.48;96.27
51287;BME280;37364;46.974;18.916;2023-03-23T07:09:35;153526.88;;;12.61;99.13
51287;BME280;37364;46.974;18.916;2023-03-23T07:12:09;153573.53;;;12.79;95.42
51287;BME280;37364;46.974;18.916;2023-03-23T07:14:46;153621.53;;;12.98;95.04
51287;BME280;37364;46.974;18.916;2023-03-23T07:17:20;153665.66;;;13.16;96.46
51287;BME280;37364;46.974;18.916;2023-03-23T07:20:14;153707.19;;;13.32;92.66
51287;BME280;37364;46.974;18.916;2023-03-23T07:22:45;153755.19;;;13.51;91.25
51287;BME280;37364;46.974;18.916;2023-03-23T07:25:39;153792.78;;;13.66;89.49
51287;BME280;37364;46.974;18.916;2023-03-23T07:28:17;153814.88;;;13.75;88.44
51287;BME280;37364;46.974;18.916;2023-03-23T07:30:50;153870.66;;;13.97;86.87
51287;BME280;37364;46.974;18.916;2023-03-23T07:33:36;153930.38;;;14.20;88.05
51287;BME280;37364;46.974;18.916;2023-03-23T07:36:09;153995.28;;;14.46;84.05
51287;BME280;37364;46.974;18.916;2023-03-23T07:38:40;153990.06;;;14.44;83.07
51287;BME280;37364;46.974;18.916;2023-03-23T07:41:14;154036.91;;;14.62;83.06
51287;BME280;37364;46.974;18.916;2023-03-23T07:43:45;154090.09;;;14.83;80.59
51287;BME280;37364;46.974;18.916;2023-03-23T07:46:30;154173.22;;;15.16;83.67
51287;BME280;37364;46.974;18.916;2023-03-23T07:49:14;154212.19;;;15.32;79.56
51287;BME280;37364;46.974;18.916;2023-03-23T07:51:55;154222.56;;;15.36;78.53
51287;BME280;37364;46.974;18.916;2023-03-23T07:54:28;154239.44;;;15.42;78.23
51287;BME280;37364;46.974;18.916;2023-03-23T07:57:04;154294.00;;;15.64;78.22
51287;BME280;37364;46.974;18.916;2023-03-23T07:59:39;154316.19;;;15.73;75.22
51287;BME280;37364;46.974;18.916;2023-03-23T08:02:12;154356.44;;;15.89;74.58
51287;BME280;37364;46.974;18.916;2023-03-23T08:04:57;154409.75;;;16.10;74.24
51287;BME280;37364;46.974;18.916;2023-03-23T08:07:55;154437.00;;;16.20;74.46
51287;BME280;37364;46.974;18.916;2023-03-23T08:10:55;154548.81;;;16.65;73.76
51287;BME280;37364;46.974;18.916;2023-03-23T08:13:44;154556.59;;;16.68;71.42
51287;BME280;37364;46.974;18.916;2023-03-23T08:16:33;154590.41;;;16.81;70.15
51287;BME280;37364;46.974;18.916;2023-03-23T08:19:07;154654.19;;;17.06;69.01
51287;BME280;37364;46.974;18.916;2023-03-23T08:22:09;154600.84;;;16.85;66.90
51287;BME280;37364;46.974;18.916;2023-03-23T08:25:16;154643.78;;;17.02;65.52
51287;BME280;37364;46.974;18.916;2023-03-23T08:28:11;154655.47;;;17.07;64.03
51287;BME280;37364;46.974;18.916;2023-03-23T08:31:06;154646.34;;;17.03;63.40
51287;BME280;37364;46.974;18.916;2023-03-23T08:33:49;154695.78;;;17.23;63.50
51287;BME280;37364;46.974;18.916;2023-03-23T08:36:38;154712.72;;;17.29;65.09
51287;BME280;37364;46.974;18.916;2023-03-23T08:39:14;154754.31;;;17.46;62.67
51287;BME280;37364;46.974;18.916;2023-03-23T08:42:03;154768.63;;;17.51;62.41
51287;BME280;37364;46.974;18.916;2023-03-23T08:44:57;154820.66;;;17.72;61.22
51287;BME280;37364;46.974;18.916;2023-03-23T08:47:47;154840.16;;;17.79;62.45
51287;BME280;37364;46.974;18.916;2023-03-23T08:50:37;154897.47;;;18.02;62.68
51287;BME280;37364;46.974;18.916;2023-03-23T08:53:42;154958.63;;;18.26;61.13
51287;BME280;37364;46.974;18.916;2023-03-23T08:56:42;154913.09;;;18.08;59.98
51287;BME280;37364;46.974;18.916;2023-03-23T08:59:35;154993.75;;;18.40;61.35
51287;BME280;37364;46.974;18.916;2023-03-23T09:02:17;155036.72;;;18.57;60.42
51287;BME280;37364;46.974;18.916;2023-03-23T09:04:56;155032.81;;;18.55;59.82
51287;BME280;37364;46.974;18.916;2023-03-23T09:07:46;155109.69;;;18.86;60.16
51287;BME280;37364;46.974;18.916;2023-03-23T09:10:17;155137.03;;;18.96;59.07
51287;BME280;37364;46.974;18.916;2023-03-23T09:12:52;155095.38;;;18.80;58.08
51287;BME280;37364;46.974;18.916;2023-03-23T09:15:24;155123.97;;;18.91;58.71
51287;BME280;37364;46.974;18.916;2023-03-23T09:18:02;155108.38;;;18.85;58.31
51287;BME280;37364;46.974;18.916;2023-03-23T09:20:33;155111.00;;;18.86;58.20
51287;BME280;37364;46.974;18.916;2023-03-23T09:23:04;155121.41;;;18.90;57.48
51287;BME280;37364;46.974;18.916;2023-03-23T09:25:35;155120.13;;;18.90;55.71
51287;BME280;37364;46.974;18.916;2023-03-23T09:28:09;155198.19;;;19.21;57.96
51287;BME280;37364;46.974;18.916;2023-03-23T09:30:41;155236.00;;;19.35;56.65
51287;BME280;37364;46.974;18.916;2023-03-23T09:33:19;155312.81;;;19.66;55.32
51287;BME280;37364;46.974;18.916;2023-03-23T09:35:49;155306.31;;;19.63;55.66
51287;BME280;37364;46.974;18.916;2023-03-23T09:38:20;155308.94;;;19.64;53.64
51287;BME280;37364;46.974;18.916;2023-03-23T09:40:56;155273.78;;;19.50;53.99
51287;BME280;37364;46.974;18.916;2023-03-23T09:44:02;155392.31;;;19.97;53.62
51287;BME280;37364;46.974;18.916;2023-03-23T09:46:43;155436.63;;;20.14;55.08
51287;BME280;37364;46.974;18.916;2023-03-23T09:49:21;155454.88;;;20.22;51.21
51287;BME280;37364;46.974;18.916;2023-03-23T09:51:56;155439.25;;;20.15;51.61
51287;BME280;37364;46.974;18.916;2023-03-23T09:54:29;155467.94;;;20.27;51.96
51287;BME280;37364;46.974;18.916;2023-03-23T09:57:11;155521.31;;;20.48;52.25
51287;BME280;37364;46.974;18.916;2023-03-23T09:59:52;155538.28;;;20.54;51.05
51287;BME280;37364;46.974;18.916;2023-03-23T10:02:28;155525.25;;;20.49;49.73
51287;BME280;37364;46.974;18.916;2023-03-23T10:05:22;155540.88;;;20.55;47.75
51287;BME280;37364;46.974;18.916;2023-03-23T10:07:54;155608.72;;;20.82;49.63
51287;BME280;37364;46.974;18.916;2023-03-23T10:10:33;155577.44;;;20.70;47.60
51287;BME280;37364;46.974;18.916;2023-03-23T10:13:12;155461.38;;;20.24;47.81
51287;BME280;37364;46.974;18.916;2023-03-23T10:15:49;155393.66;;;19.98;49.34
51287;BME280;37364;46.974;18.916;2023-03-23T10:18:24;155421.00;;;20.08;47.54
51287;BME280;37364;46.974;18.916;2023-03-23T10:20:58;155491.34;;;20.36;48.62
51287;BME280;37364;46.974;18.916;2023-03-23T10:23:56;155556.56;;;20.62;49.80
51287;BME280;37364;46.974;18.916;2023-03-23T10:26:38;155469.22;;;20.27;48.59
51287;BME280;37364;46.974;18.916;2023-03-23T10:29:15;155512.19;;;20.44;49.28
51287;BME280;37364;46.974;18.916;2023-03-23T10:31:52;155437.97;;;20.15;48.83
51287;BME280;37364;46.974;18.916;2023-03-23T10:34:30;155482.22;;;20.32;47.96
51287;BME280;37364;46.974;18.916;2023-03-23T10:37:05;155535.66;;;20.53;48.63
51287;BME280;37364;46.974;18.916;2023-03-23T10:39:45;155606.09;;;20.81;47.47
51287;BME280;37364;46.974;18.916;2023-03-23T10:42:25;155629.56;;;20.90;47.71
51287;BME280;37364;46.974;18.916;2023-03-23T10:44:59;155619.13;;;20.86;47.60
51287;BME280;37364;46.974;18.916;2023-03-23T10:47:32;155604.78;;;20.81;47.64
51287;BME280;37364;46.974;18.916;2023-03-23T10:50:11;155724.72;;;21.28;47.03
51287;BME280;37364;46.974;18.916;2023-03-23T10:52:44;155737.78;;;21.33;47.05
51287;BME280;37364;46.974;18.916;2023-03-23T10:55:17;155679.09;;;21.10;48.82
51287;BME280;37364;46.974;18.916;2023-03-23T10:58:00;155731.22;;;21.30;46.03
51287;BME280;37364;46.974;18.916;2023-03-23T11:00:32;155672.59;;;21.07;45.82
51287;BME280;37364;46.974;18.916;2023-03-23T11:03:27;155632.19;;;20.91;47.19
51287;BME280;37364;46.974;18.916;2023-03-23T11:06:03;155658.25;;;21.02;46.69
51287;BME280;37364;46.974;18.916;2023-03-23T11:08:37;155728.66;;;21.29;45.96
51287;BME280;37364;46.974;18.916;2023-03-23T11:11:11;155817.38;;;21.64;45.79
51287;BME280;37364;46.974;18.916;2023-03-23T11:13:46;155872.16;;;21.86;45.62
51287;BME280;37364;46.974;18.916;2023-03-23T11:16:25;155930.81;;;22.09;45.75
51287;BME280;37364;46.974;18.916;2023-03-23T11:19:11;155942.56;;;22.14;44.76
51287;BME280;37364;46.974;18.916;2023-03-23T11:21:47;155899.50;;;21.97;45.25
51287;BME280;37364;46.974;18.916;2023-03-23T11:24:21;155873.44;;;21.86;43.70
51287;BME280;37364;46.974;18.916;2023-03-23T11:26:53;155789.97;;;21.53;43.91
51287;BME280;37364;46.974;18.916;2023-03-23T11:29:27;155689.53;;;21.14;44.11
51287;BME280;37364;46.974;18.916;2023-03-23T11:32:04;155586.53;;;20.73;45.56
51287;BME280;37364;46.974;18.916;2023-03-23T11:34:41;155623.06;;;20.88;46.03
51287;BME280;37364;46.974;18.916;2023-03-23T11:37:14;155630.84;;;20.91;46.03
51287;BME280;37364;46.974;18.916;2023-03-23T11:39:48;155606.09;;;20.81;46.28
51287;BME280;37364;46.974;18.916;2023-03-23T11:42:22;155525.25;;;20.49;45.85
51287;BME280;37364;46.974;18.916;2023-03-23T11:45:14;155553.97;;;20.61;47.20
51287;BME280;37364;46.974;18.916;2023-03-23T11:47:54;155589.16;;;20.74;45.85
51287;BME280;37364;46.974;18.916;2023-03-23T11:50:33;155646.50;;;20.97;46.75
51287;BME280;37364;46.974;18.916;2023-03-23T11:53:20;155659.53;;;21.02;45.66
51287;BME280;37364;46.974;18.916;2023-03-23T11:56:04;155656.97;;;21.01;45.62
51287;BME280;37364;46.974;18.916;2023-03-23T11:58:36;155589.16;;;20.74;46.70
51287;BME280;37364;46.974;18.916;2023-03-23T12:01:12;155559.19;;;20.63;46.13
51287;BME280;37364;46.974;18.916;2023-03-23T12:03:58;155556.56;;;20.62;46.86
51287;BME280;37364;46.974;18.916;2023-03-23T12:06:39;155516.09;;;20.46;47.21
51287;BME280;37364;46.974;18.916;2023-03-23T12:09:22;155450.97;;;20.20;47.07
51287;BME280;37364;46.974;18.916;2023-03-23T12:12:07;155454.88;;;20.22;47.68
51287;BME280;37364;46.974;18.916;2023-03-23T12:14:46;155543.50;;;20.57;47.33
51287;BME280;37364;46.974;18.916;2023-03-23T12:17:27;155557.91;;;20.62;48.06
51287;BME280;37364;46.974;18.916;2023-03-23T12:20:12;155676.47;;;21.09;48.00
51287;BME280;37364;46.974;18.916;2023-03-23T12:22:58;155793.88;;;21.55;45.53
51287;BME280;37364;46.974;18.916;2023-03-23T12:25:51;155810.81;;;21.62;46.10
51287;BME280;37364;46.974;18.916;2023-03-23T12:28:35;155902.16;;;21.98;44.78
51287;BME280;37364;46.974;18.916;2023-03-23T12:31:15;155919.09;;;22.04;44.29
51287;BME280;37364;46.974;18.916;2023-03-23T12:33:54;155924.31;;;22.06;46.51
51287;BME280;37364;46.974;18.916;2023-03-23T12:36:39;155938.66;;;22.12;44.84
51287;BME280;37364;46.974;18.916;2023-03-23T12:42:37;155907.38;;;22.00;45.36
51287;BME280;37364;46.974;18.916;2023-03-23T12:45:20;155950.38;;;22.17;44.60
51287;BME280;37364;46.974;18.916;2023-03-23T12:47:58;155972.63;;;22.25;43.62
51287;BME280;37364;46.974;18.916;2023-03-23T12:50:33;155962.16;;;22.21;42.78
51287;BME280;37364;46.974;18.916;2023-03-23T12:53:11;155939.94;;;22.12;43.81
51287;BME280;37364;46.974;18.916;2023-03-23T12:55:46;155911.28;;;22.01;45.42
51287;BME280;37364;46.974;18.916;2023-03-23T12:58:26;155979.13;;;22.28;43.20
51287;BME280;37364;46.974;18.916;2023-03-23T13:01:02;155866.94;;;21.84;44.00
51287;BME280;37364;46.974;18.916;2023-03-23T13:03:40;155847.38;;;21.76;43.85
51287;BME280;37364;46.974;18.916;2023-03-23T13:06:17;155804.31;;;21.59;44.47
51287;BME280;37364;46.974;18.916;2023-03-23T13:09:01;155801.72;;;21.58;44.50
51287;BME280;37364;46.974;18.916;2023-03-23T13:11:35;155874.72;;;21.87;44.92
51287;BME280;37364;46.974;18.916;2023-03-23T13:14:22;155954.31;;;22.18;43.66
51287;BME280;37364;46.974;18.916;2023-03-23T13:17:03;155956.94;;;22.19;44.68
51287;BME280;37364;46.974;18.916;2023-03-23T13:19:57;155895.59;;;21.95;44.58
51287;BME280;37364;46.974;18.916;2023-03-23T13:22:36;155882.56;;;21.90;44.24
51287;BME280;37364;46.974;18.916;2023-03-23T13:25:15;155833.00;;;21.70;44.39
51287;BME280;37364;46.974;18.916;2023-03-23T13:27:57;155843.44;;;21.75;44.66
51287;BME280;37364;46.974;18.916;2023-03-23T13:30:33;155925.59;;;22.07;43.50
51287;BME280;37364;46.974;18.916;2023-03-23T13:33:10;155879.94;;;21.89;44.21
51287;BME280;37364;46.974;18.916;2023-03-23T13:35:42;155835.59;;;21.71;43.77
51287;BME280;37364;46.974;18.916;2023-03-23T13:38:18;155835.59;;;21.71;44.15
51287;BME280;37364;46.974;18.916;2023-03-23T13:40:51;155818.66;;;21.65;43.88
51287;BME280;37364;46.974;18.916;2023-03-23T13:43:28;155714.28;;;21.24;43.79
51287;BME280;37364;46.974;18.916;2023-03-23T13:46:12;155716.94;;;21.25;44.25